createdAt,value
2017-11-16T00:00:36.410Z,7.03
2017-11-16T00:03:04.836Z,9.00
2017-11-16T00:05:33.131Z,8.80
2017-11-16T00:08:01.429Z,8.53
2017-11-16T00:10:30.517Z,9.33
2017-11-16T00:12:59.571Z,9.67
2017-11-16T00:15:27.912Z,9.60
2017-11-16T00:17:56.209Z,7.33
2017-11-16T00:20:24.488Z,10.30
2017-11-16T00:22:52.823Z,11.07
2017-11-16T00:25:21.114Z,10.83
2017-11-16T00:27:49.401Z,10.80
2017-11-16T00:30:17.715Z,10.10
2017-11-16T00:32:45.993Z,12.90
2017-11-16T00:35:14.332Z,9.53
2017-11-16T00:37:42.627Z,9.00
2017-11-16T00:40:10.919Z,9.97
2017-11-16T00:42:39.239Z,7.60
2017-11-16T00:45:07.627Z,6.87
2017-11-16T00:47:35.927Z,7.50
2017-11-16T00:50:04.280Z,12.57
2017-11-16T00:52:32.609Z,8.67
2017-11-16T00:55:01.688Z,8.30
2017-11-16T00:57:29.995Z,10.43
2017-11-16T00:59:59.117Z,8.67
2017-11-16T01:02:27.395Z,11.47
2017-11-16T01:04:55.672Z,8.50
2017-11-16T01:07:23.979Z,15.50
2017-11-16T01:09:52.333Z,7.90
2017-11-16T01:12:20.600Z,10.33
2017-11-16T01:14:48.918Z,8.90
2017-11-16T01:17:17.229Z,9.13
2017-11-16T01:19:45.518Z,8.10
2017-11-16T01:22:13.801Z,8.73
2017-11-16T01:24:42.895Z,10.33
2017-11-16T01:27:11.185Z,8.37
2017-11-16T01:29:39.465Z,6.70
2017-11-16T01:32:07.788Z,9.83
2017-11-16T01:34:36.075Z,5.63
2017-11-16T01:37:04.378Z,10.23
2017-11-16T01:39:32.708Z,8.00
2017-11-16T01:42:01.047Z,5.43
2017-11-16T01:44:30.150Z,6.73
2017-11-16T01:46:58.511Z,7.90
2017-11-16T01:49:27.575Z,8.90
2017-11-16T01:51:55.871Z,5.70
2017-11-16T01:54:24.188Z,7.63
2017-11-16T01:56:52.487Z,9.17
2017-11-16T01:59:20.793Z,6.17
2017-11-16T02:01:49.139Z,7.97
2017-11-16T02:04:17.430Z,8.97
2017-11-16T02:06:45.720Z,6.93
2017-11-16T02:09:14.080Z,7.50
2017-11-16T02:11:42.381Z,8.43
2017-11-16T02:14:11.422Z,6.43
2017-11-16T02:16:39.807Z,4.63
2017-11-16T02:19:08.140Z,5.70
2017-11-16T02:21:36.524Z,6.47
2017-11-16T02:24:04.830Z,8.20
2017-11-16T02:26:33.124Z,6.37
2017-11-16T02:29:01.541Z,7.57
2017-11-16T02:31:29.819Z,6.53
2017-11-16T02:33:58.123Z,4.30
2017-11-16T02:36:26.448Z,5.73
2017-11-16T02:38:54.744Z,6.47
2017-11-16T02:41:23.054Z,8.30
2017-11-16T02:43:51.384Z,5.63
2017-11-16T02:46:19.669Z,5.73
2017-11-16T02:48:47.951Z,7.03
2017-11-16T02:51:16.267Z,5.33
2017-11-16T02:53:44.573Z,4.97
2017-11-16T02:56:12.847Z,4.40
2017-11-16T02:58:41.940Z,6.30
2017-11-16T03:01:10.350Z,5.47
2017-11-16T03:03:38.687Z,6.90
2017-11-16T03:06:07.057Z,6.50
2017-11-16T03:08:35.387Z,5.97
2017-11-16T03:11:04.535Z,5.60
2017-11-16T03:13:32.913Z,6.73
2017-11-16T03:16:01.993Z,6.33
2017-11-16T03:18:30.308Z,7.20
2017-11-16T03:20:58.648Z,5.80
2017-11-16T03:23:27.763Z,5.80
2017-11-16T03:25:56.815Z,5.40
2017-11-16T03:28:25.101Z,7.60
2017-11-16T03:30:54.229Z,5.83
2017-11-16T03:33:23.288Z,9.50
2017-11-16T03:35:51.553Z,6.50
2017-11-16T03:38:20.627Z,7.73
2017-11-16T03:40:48.909Z,7.13
2017-11-16T03:43:17.244Z,7.10
2017-11-16T03:45:45.610Z,6.33
2017-11-16T03:48:13.923Z,5.73
2017-11-16T03:50:42.241Z,5.80
2017-11-16T03:53:10.587Z,6.10
2017-11-16T03:55:38.880Z,4.53
2017-11-16T03:58:07.225Z,6.83
2017-11-16T04:00:36.273Z,5.00
2017-11-16T04:03:04.589Z,4.70
2017-11-16T04:05:32.996Z,4.67
2017-11-16T04:08:01.302Z,7.40
2017-11-16T04:10:29.600Z,6.43
2017-11-16T04:12:57.915Z,4.87
2017-11-16T04:15:26.189Z,4.27
2017-11-16T04:17:54.467Z,3.87
2017-11-16T04:20:22.789Z,6.13
2017-11-16T04:22:51.828Z,5.93
2017-11-16T04:25:20.925Z,3.77
2017-11-16T04:27:49.250Z,3.57
2017-11-16T04:30:18.321Z,4.10
2017-11-16T04:32:46.603Z,4.80
2017-11-16T04:35:14.914Z,5.00
2017-11-16T04:37:43.206Z,5.37
2017-11-16T04:40:12.279Z,5.13
2017-11-16T04:42:40.601Z,4.90
2017-11-16T04:45:08.893Z,4.70
2017-11-16T04:47:37.227Z,6.83
2017-11-16T04:50:06.327Z,4.67
2017-11-16T04:52:34.669Z,5.80
2017-11-16T04:55:02.986Z,3.70
2017-11-16T04:57:31.310Z,4.63
2017-11-16T04:59:59.623Z,4.63
2017-11-16T05:02:27.917Z,5.40
2017-11-16T05:04:56.277Z,10.33
2017-11-16T05:07:24.570Z,5.37
2017-11-16T05:09:53.643Z,5.20
2017-11-16T05:12:21.991Z,4.13
2017-11-16T05:14:51.060Z,4.83
2017-11-16T05:17:19.340Z,8.00
2017-11-16T05:19:47.675Z,5.93
2017-11-16T05:22:15.965Z,5.57
2017-11-16T05:24:44.269Z,6.17
2017-11-16T05:27:12.611Z,7.03
2017-11-16T05:29:40.900Z,5.97
2017-11-16T05:32:09.224Z,5.90
2017-11-16T05:34:37.553Z,5.10
2017-11-16T05:37:06.608Z,5.63
2017-11-16T05:39:34.910Z,4.30
2017-11-16T05:42:03.211Z,6.80
2017-11-16T05:44:31.515Z,8.77
2017-11-16T05:46:59.802Z,8.73
2017-11-16T05:49:28.084Z,7.90
2017-11-16T05:51:56.382Z,5.63
2017-11-16T05:54:25.451Z,5.93
2017-11-16T05:56:53.763Z,6.80
2017-11-16T05:59:22.059Z,5.77
2017-11-16T06:01:50.342Z,5.17
2017-11-16T06:04:18.639Z,5.73
2017-11-16T06:06:46.913Z,5.20
2017-11-16T06:09:15.221Z,6.07
2017-11-16T06:11:43.526Z,6.33
2017-11-16T06:14:12.604Z,8.70
2017-11-16T06:16:40.924Z,8.13
2017-11-16T06:19:09.231Z,9.20
2017-11-16T06:21:37.541Z,10.17
2017-11-16T06:24:05.863Z,9.33
2017-11-16T06:26:34.917Z,8.00
2017-11-16T06:29:03.284Z,13.27
2017-11-16T06:31:32.352Z,8.90
2017-11-16T06:34:00.667Z,10.70
2017-11-16T06:36:29.004Z,12.43
2017-11-16T06:38:57.339Z,7.13
2017-11-16T06:41:26.393Z,7.07
2017-11-16T06:43:54.692Z,9.93
2017-11-16T06:46:23.010Z,8.20
2017-11-16T06:48:52.213Z,8.13
2017-11-16T06:51:20.520Z,10.07
2017-11-16T06:53:50.766Z,10.80
2017-11-16T06:56:19.075Z,11.30
2017-11-16T06:58:47.383Z,9.67
2017-11-16T07:01:15.681Z,10.73
2017-11-16T07:03:44.008Z,10.30
2017-11-16T07:06:12.305Z,12.10
2017-11-16T07:08:40.596Z,8.37
2017-11-16T07:11:08.928Z,14.43
2017-11-16T07:13:37.234Z,17.37
2017-11-16T07:16:06.336Z,11.50
2017-11-16T07:18:34.694Z,10.17
2017-11-16T07:21:02.974Z,11.43
2017-11-16T07:23:32.053Z,14.20
2017-11-16T07:26:00.364Z,15.40
2017-11-16T07:28:28.664Z,12.20
2017-11-16T07:30:57.008Z,13.30
2017-11-16T07:33:25.324Z,13.10
2017-11-16T07:35:54.380Z,15.37
2017-11-16T07:38:22.699Z,14.70
2017-11-16T07:40:52.580Z,13.23
2017-11-16T07:43:20.965Z,15.03
2017-11-16T07:45:49.247Z,10.63
2017-11-16T07:48:25.217Z,16.07
2017-11-16T07:50:54.297Z,16.87
2017-11-16T07:53:22.603Z,15.37
2017-11-16T07:55:50.926Z,13.67
2017-11-16T07:58:19.211Z,15.87
2017-11-16T08:00:47.524Z,13.00
2017-11-16T08:03:29.239Z,12.90
2017-11-16T08:05:57.584Z,15.47
2017-11-16T08:08:25.895Z,11.50
2017-11-16T08:10:54.184Z,11.63
2017-11-16T08:13:22.493Z,12.20
2017-11-16T08:15:50.803Z,14.13
2017-11-16T08:18:19.250Z,11.30
2017-11-16T08:20:47.539Z,14.40
2017-11-16T08:23:16.631Z,12.63
2017-11-16T08:25:44.925Z,11.57
2017-11-16T08:28:13.204Z,12.87
2017-11-16T08:30:41.531Z,13.40
2017-11-16T08:33:09.807Z,10.00
2017-11-16T08:35:38.930Z,12.77
2017-11-16T08:38:07.237Z,10.33
2017-11-16T08:40:35.560Z,11.63
2017-11-16T08:43:03.879Z,10.93
2017-11-16T08:45:32.159Z,11.60
2017-11-16T08:48:00.479Z,10.33
2017-11-16T08:50:28.765Z,12.47
2017-11-16T08:52:57.107Z,9.77
2017-11-16T08:55:25.389Z,12.60
2017-11-16T08:57:53.708Z,11.53
2017-11-16T09:00:22.009Z,14.87
2017-11-16T09:02:50.304Z,15.90
2017-11-16T09:05:18.633Z,12.33
2017-11-16T09:07:47.709Z,14.50
2017-11-16T09:10:16.043Z,12.23
2017-11-16T09:12:44.326Z,16.90
2017-11-16T09:15:12.670Z,13.77
2017-11-16T09:17:41.010Z,15.87
2017-11-16T09:20:09.339Z,14.73
2017-11-16T09:22:37.631Z,26.50
2017-11-16T09:25:05.925Z,16.93
2017-11-16T09:27:35.137Z,12.70
2017-11-16T09:30:03.478Z,12.07
2017-11-16T09:32:31.785Z,13.57
2017-11-16T09:35:00.143Z,12.67
2017-11-16T09:37:28.469Z,15.17
2017-11-16T09:39:56.752Z,9.47
2017-11-16T09:42:25.831Z,12.93
2017-11-16T09:44:54.149Z,13.27
2017-11-16T09:47:22.456Z,14.37
2017-11-16T09:49:50.811Z,11.90
2017-11-16T09:52:19.095Z,13.03
2017-11-16T09:54:47.427Z,15.10
2017-11-16T09:57:15.748Z,13.90
2017-11-16T09:59:44.124Z,17.87
2017-11-16T10:02:12.428Z,10.43
2017-11-16T10:04:40.737Z,13.10
2017-11-16T10:07:09.796Z,11.40
2017-11-16T10:09:38.161Z,15.40
2017-11-16T10:12:06.474Z,12.10
2017-11-16T10:14:35.568Z,14.83
2017-11-16T10:17:03.883Z,15.80
2017-11-16T10:19:32.962Z,14.50
2017-11-16T10:22:01.645Z,18.43
2017-11-16T10:24:31.359Z,13.97
2017-11-16T10:27:00.517Z,19.90
2017-11-16T10:29:28.820Z,15.30
2017-11-16T10:32:00.445Z,18.63
2017-11-16T10:34:28.752Z,16.33
2017-11-16T10:36:57.072Z,15.57
2017-11-16T10:39:25.389Z,13.20
2017-11-16T10:41:53.743Z,15.13
2017-11-16T10:44:22.045Z,21.13
2017-11-16T10:46:50.370Z,18.40
2017-11-16T10:49:18.670Z,14.40
2017-11-16T10:51:47.001Z,18.57
2017-11-16T10:54:15.303Z,13.90
2017-11-16T10:56:43.590Z,15.40
2017-11-16T10:59:11.893Z,18.17
2017-11-16T11:01:40.276Z,15.43
2017-11-16T11:04:08.592Z,16.70
2017-11-16T11:06:36.888Z,17.40
2017-11-16T11:09:05.199Z,14.70
2017-11-16T11:11:33.538Z,19.10
2017-11-16T11:14:01.849Z,21.00
2017-11-16T11:16:30.160Z,15.27
2017-11-16T11:18:59.256Z,14.83
2017-11-16T11:21:27.588Z,16.77
2017-11-16T11:23:55.902Z,22.97
2017-11-16T11:26:24.212Z,16.23
2017-11-16T11:28:52.548Z,22.27
2017-11-16T11:31:21.588Z,21.40
2017-11-16T11:33:50.664Z,21.23
2017-11-16T11:36:18.995Z,19.63
2017-11-16T11:38:48.059Z,23.87
2017-11-16T11:41:17.076Z,25.43
2017-11-16T11:43:45.395Z,18.00
2017-11-16T11:46:13.676Z,20.00
2017-11-16T11:48:42.832Z,18.67
2017-11-16T11:51:11.112Z,25.00
2017-11-16T11:53:39.427Z,21.03
2017-11-16T11:56:07.736Z,18.97
2017-11-16T11:58:36.057Z,24.23
2017-11-16T12:01:04.392Z,19.33
2017-11-16T12:03:32.724Z,21.07
2017-11-16T12:06:02.387Z,23.77
2017-11-16T12:08:30.719Z,19.63
2017-11-16T12:10:58.997Z,21.20
2017-11-16T12:13:27.358Z,18.77
2017-11-16T12:15:55.680Z,21.83
2017-11-16T12:18:23.978Z,19.70
2017-11-16T12:20:52.295Z,23.30
2017-11-16T12:23:20.600Z,16.20
2017-11-16T12:25:48.972Z,17.10
2017-11-16T12:28:17.310Z,17.70
2017-11-16T12:30:45.668Z,21.27
2017-11-16T12:33:13.953Z,17.30
2017-11-16T12:35:42.288Z,16.80
2017-11-16T12:38:10.576Z,23.00
2017-11-16T12:40:38.901Z,22.67
2017-11-16T12:43:07.211Z,21.47
2017-11-16T12:45:35.592Z,19.27
2017-11-16T12:48:03.956Z,20.13
2017-11-16T12:50:33.299Z,22.60
2017-11-16T12:53:01.609Z,13.53
2017-11-16T12:55:29.933Z,16.23
2017-11-16T12:57:58.256Z,18.27
2017-11-16T13:00:26.591Z,20.00
2017-11-16T13:02:55.683Z,17.73
2017-11-16T13:05:23.976Z,20.53
2017-11-16T13:07:52.265Z,22.60
2017-11-16T13:10:20.587Z,20.17
2017-11-16T13:12:48.908Z,17.90
2017-11-16T13:15:17.209Z,26.90
2017-11-16T13:17:45.525Z,21.20
2017-11-16T13:20:13.803Z,19.83
2017-11-16T13:22:42.126Z,20.53
2017-11-16T13:25:10.424Z,21.53
2017-11-16T13:27:38.731Z,19.07
2017-11-16T13:30:07.069Z,19.33
2017-11-16T13:32:36.131Z,21.90
2017-11-16T13:35:04.462Z,21.40
2017-11-16T13:37:33.655Z,18.90
2017-11-16T13:40:12.080Z,19.07
2017-11-16T13:42:40.393Z,20.10
2017-11-16T13:45:08.703Z,21.67
2017-11-16T13:47:37.112Z,26.23
2017-11-16T13:50:05.424Z,20.00
2017-11-16T13:52:33.745Z,17.77
2017-11-16T13:55:02.087Z,18.30
2017-11-16T13:57:30.397Z,21.57
2017-11-16T13:59:58.701Z,14.57
2017-11-16T14:02:27.049Z,18.27
2017-11-16T14:04:55.351Z,19.20
2017-11-16T14:07:23.676Z,24.70
2017-11-16T14:09:52.731Z,17.70
2017-11-16T14:12:21.077Z,23.60
2017-11-16T14:14:49.357Z,22.17
2017-11-16T14:17:17.672Z,22.13
2017-11-16T14:19:45.984Z,23.23
2017-11-16T14:22:14.278Z,21.77
2017-11-16T14:24:42.616Z,23.57
2017-11-16T14:27:10.920Z,21.60
2017-11-16T14:29:39.318Z,25.10
2017-11-16T14:32:07.669Z,20.80
2017-11-16T14:34:36.769Z,17.90
2017-11-16T14:37:12.288Z,23.60
2017-11-16T14:39:40.616Z,18.73
2017-11-16T14:42:08.905Z,24.33
2017-11-16T14:44:37.464Z,20.80
2017-11-16T14:47:05.797Z,25.33
2017-11-16T14:49:34.901Z,24.03
2017-11-16T14:52:03.227Z,21.87
2017-11-16T14:54:32.280Z,20.63
2017-11-16T14:57:00.593Z,21.70
2017-11-16T14:59:28.988Z,19.73
2017-11-16T15:01:58.235Z,22.10
2017-11-16T15:04:26.566Z,19.67
2017-11-16T15:06:54.888Z,23.77
2017-11-16T15:09:23.174Z,20.17
2017-11-16T15:11:51.507Z,24.80
2017-11-16T15:14:19.855Z,20.93
2017-11-16T15:16:48.190Z,23.50
2017-11-16T15:19:16.512Z,21.93
2017-11-16T15:21:44.812Z,23.57
2017-11-16T15:24:14.128Z,20.83
2017-11-16T15:26:42.450Z,20.10
2017-11-16T15:29:10.731Z,19.50
2017-11-16T15:31:39.065Z,21.20
2017-11-16T15:34:07.361Z,16.70
2017-11-16T15:36:35.654Z,19.10
2017-11-16T15:39:03.984Z,22.73
2017-11-16T15:41:33.042Z,20.60
2017-11-16T15:44:01.324Z,18.10
2017-11-16T15:46:29.682Z,20.17
2017-11-16T15:48:57.958Z,21.50
2017-11-16T15:51:26.242Z,22.07
2017-11-16T15:53:54.558Z,24.87
2017-11-16T15:56:22.856Z,23.57
2017-11-16T15:58:51.148Z,23.57
2017-11-16T16:01:20.250Z,25.87
2017-11-16T16:03:50.283Z,22.10
2017-11-16T16:06:18.713Z,28.13
2017-11-16T16:08:47.040Z,32.37
2017-11-16T16:11:15.384Z,32.50
2017-11-16T16:13:43.715Z,20.30
2017-11-16T16:16:11.993Z,27.37
2017-11-16T16:18:40.408Z,25.37
2017-11-16T16:21:08.738Z,19.13
2017-11-16T16:23:38.042Z,22.17
2017-11-16T16:26:06.388Z,24.70
2017-11-16T16:28:35.476Z,24.13
2017-11-16T16:31:03.804Z,21.57
2017-11-16T16:33:32.938Z,23.43
2017-11-16T16:36:02.114Z,27.37
2017-11-16T16:38:31.222Z,30.50
2017-11-16T16:41:00.689Z,31.83
2017-11-16T16:43:29.048Z,28.10
2017-11-16T16:45:58.141Z,22.93
2017-11-16T16:48:26.439Z,34.17
2017-11-16T16:50:54.847Z,30.57
2017-11-16T16:53:23.176Z,34.33
2017-11-16T16:55:51.477Z,32.73
2017-11-16T16:58:19.791Z,37.97
2017-11-16T17:00:48.856Z,45.93
2017-11-16T17:03:17.233Z,28.63
2017-11-16T17:05:46.303Z,34.67
2017-11-16T17:08:14.619Z,31.13
2017-11-16T17:10:42.897Z,34.90
2017-11-16T17:13:11.188Z,36.13
2017-11-16T17:15:39.628Z,33.90
2017-11-16T17:18:07.912Z,35.03
2017-11-16T17:20:36.232Z,42.10
2017-11-16T17:23:04.605Z,36.33
2017-11-16T17:25:33.039Z,32.27
2017-11-16T17:28:01.799Z,38.00
2017-11-16T17:30:30.095Z,38.63
2017-11-16T17:32:58.395Z,44.90
2017-11-16T17:35:26.712Z,43.73
2017-11-16T17:37:55.798Z,38.20
2017-11-16T17:40:24.133Z,40.93
2017-11-16T17:42:52.428Z,41.90
2017-11-16T17:45:21.516Z,51.23
2017-11-16T17:47:49.896Z,45.60
2017-11-16T17:50:21.951Z,36.80
2017-11-16T17:52:50.299Z,42.37
2017-11-16T17:55:18.616Z,45.33
2017-11-16T17:57:46.904Z,40.30
2017-11-16T18:00:15.247Z,40.37
2017-11-16T18:02:43.550Z,63.03
2017-11-16T18:05:11.884Z,46.70
2017-11-16T18:07:40.249Z,50.83
2017-11-16T18:10:08.530Z,46.57
2017-11-16T18:12:37.651Z,44.03
2017-11-16T18:15:06.007Z,49.80
2017-11-16T18:17:34.332Z,42.70
2017-11-16T18:20:03.445Z,58.63
2017-11-16T18:22:33.733Z,35.20
2017-11-16T18:25:02.033Z,42.67
2017-11-16T18:27:30.395Z,48.90
2017-11-16T18:29:59.475Z,64.80
2017-11-16T18:32:27.810Z,40.63
2017-11-16T18:34:56.137Z,43.60
2017-11-16T18:37:24.420Z,44.93
2017-11-16T18:39:52.729Z,43.80
2017-11-16T18:42:21.081Z,51.07
2017-11-16T18:44:50.319Z,50.03
2017-11-16T18:47:18.612Z,52.13
2017-11-16T18:49:52.897Z,48.03
2017-11-16T18:52:23.246Z,43.50
2017-11-16T18:54:51.596Z,42.43
2017-11-16T18:57:20.702Z,37.10
2017-11-16T18:59:49.011Z,39.57
2017-11-16T19:02:17.305Z,47.60
2017-11-16T19:04:45.616Z,40.50
2017-11-16T19:07:13.940Z,52.77
2017-11-16T19:09:42.243Z,36.60
2017-11-16T19:12:11.579Z,42.47
2017-11-16T19:14:39.896Z,51.23
2017-11-16T19:17:08.201Z,38.33
2017-11-16T19:19:36.481Z,49.20
2017-11-16T19:22:04.805Z,44.57
2017-11-16T19:24:33.142Z,41.57
2017-11-16T19:27:01.487Z,41.50
2017-11-16T19:29:29.847Z,43.43
2017-11-16T19:31:58.159Z,35.93
2017-11-16T19:34:26.489Z,34.37
2017-11-16T19:36:54.808Z,35.57
2017-11-16T19:39:23.110Z,39.13
2017-11-16T19:41:51.493Z,41.40
2017-11-16T19:44:20.627Z,35.70
2017-11-16T19:46:49.741Z,37.17
2017-11-16T19:49:18.187Z,41.50
2017-11-16T19:51:46.560Z,37.37
2017-11-16T19:54:14.999Z,39.20
2017-11-16T19:56:43.448Z,35.60
2017-11-16T19:59:11.793Z,41.70
2017-11-16T20:01:40.178Z,31.37
2017-11-16T20:04:10.751Z,24.50
2017-11-16T20:06:39.145Z,36.87
2017-11-16T20:09:07.518Z,37.58
2017-11-16T20:11:35.942Z,33.33
2017-11-16T20:14:04.288Z,37.73
2017-11-16T20:16:33.417Z,35.53
2017-11-16T20:19:01.954Z,32.53
2017-11-16T20:21:31.090Z,39.30
2017-11-16T20:23:59.401Z,42.57
2017-11-16T20:26:27.812Z,31.40
2017-11-16T20:28:56.124Z,33.27
2017-11-16T20:31:24.417Z,38.20
2017-11-16T20:33:52.738Z,34.63
2017-11-16T20:36:21.036Z,36.13
2017-11-16T20:42:07.576Z,32.30
2017-11-16T20:58:15.531Z,26.97
2017-11-16T21:00:43.840Z,28.00
2017-11-16T21:03:12.216Z,31.87
2017-11-16T21:05:40.552Z,31.17
2017-11-16T21:08:08.889Z,25.53
2017-11-16T21:10:40.555Z,34.33
2017-11-16T21:13:08.969Z,29.20
2017-11-16T21:15:39.960Z,27.27
2017-11-16T21:18:09.111Z,33.80
2017-11-16T21:20:37.420Z,34.60
2017-11-16T21:23:07.385Z,24.70
2017-11-16T21:25:35.719Z,24.33
2017-11-16T21:28:04.049Z,28.93
2017-11-16T21:30:33.186Z,30.93
2017-11-16T21:33:01.494Z,31.87
2017-11-16T21:35:29.821Z,29.27
2017-11-16T21:37:58.148Z,30.67
2017-11-16T21:40:26.516Z,29.57
2017-11-16T21:42:54.823Z,29.97
2017-11-16T21:45:23.135Z,33.10
2017-11-16T21:47:51.505Z,30.10
2017-11-16T21:50:19.832Z,35.60
2017-11-16T21:52:48.127Z,33.37
2017-11-16T21:55:16.461Z,40.83
2017-11-16T21:57:44.761Z,35.97
2017-11-16T22:00:23.830Z,41.50
2017-11-16T22:02:52.151Z,34.30
2017-11-16T22:05:20.464Z,37.07
2017-11-16T22:07:48.784Z,40.80
2017-11-16T22:10:17.080Z,41.07
2017-11-16T22:12:45.421Z,39.33
2017-11-16T22:15:14.580Z,30.47
2017-11-16T22:17:42.875Z,37.30
2017-11-16T22:20:11.247Z,39.03
2017-11-16T22:22:40.400Z,36.10
2017-11-16T22:25:08.738Z,45.00
2017-11-16T22:27:37.072Z,42.60
2017-11-16T22:30:05.362Z,34.10
2017-11-16T22:32:33.700Z,28.33
2017-11-16T22:35:03.115Z,36.27
2017-11-16T22:37:31.497Z,48.73
2017-11-16T22:39:59.830Z,33.37
2017-11-16T22:42:28.119Z,31.83
2017-11-16T22:44:56.420Z,33.47
2017-11-16T22:47:24.708Z,32.00
2017-11-16T22:49:53.033Z,32.80
2017-11-16T22:52:21.321Z,37.60
2017-11-16T22:54:50.397Z,32.20
2017-11-16T22:57:18.731Z,34.97
2017-11-16T22:59:47.019Z,28.50
2017-11-16T23:02:15.316Z,35.00
2017-11-16T23:04:43.635Z,27.87
2017-11-16T23:07:11.936Z,42.30
2017-11-16T23:09:40.274Z,30.17
2017-11-16T23:12:08.701Z,35.50
2017-11-16T23:14:37.032Z,33.57
2017-11-16T23:17:05.418Z,32.93
2017-11-16T23:19:33.799Z,39.57
2017-11-16T23:22:02.124Z,37.53
2017-11-16T23:24:30.455Z,35.60
2017-11-16T23:26:58.739Z,36.97
2017-11-16T23:29:27.048Z,43.33
2017-11-16T23:31:55.339Z,34.73
2017-11-16T23:34:23.648Z,28.53
2017-11-16T23:36:51.984Z,35.43
2017-11-16T23:39:20.263Z,38.93
2017-11-16T23:41:56.482Z,27.23
2017-11-16T23:44:24.779Z,34.53
2017-11-16T23:46:53.067Z,38.67
2017-11-16T23:49:21.473Z,43.63
2017-11-16T23:51:49.923Z,37.67
2017-11-16T23:54:18.984Z,31.70
2017-11-16T23:56:47.353Z,35.53
2017-11-16T23:59:15.662Z,38.50
